Time;durP1;ratioP1;P1;durP2;ratioP2;P2;SDS_P1;SDS_P2;PMS_P1;PMS_P2;Temp;Humidity;BMP_temperature;BMP_pressure;BME280_temperature;BME280_humidity;BME280_pressure;Samples;Min_cycle;Max_cycle;Signal;HPM_P1;HPM_P2
2022/09/15 00:00:49;;;;;;;0.10;0.10;;;15.30;99.90;;;;;;4874450;29;20035;-79
2022/09/15 00:03:16;;;;;;;0.10;0.10;;;15.40;99.90;;;;;;4871914;29;20391;-79
2022/09/15 00:05:41;;;;;;;0.10;0.10;;;15.30;99.90;;;;;;4855396;29;20041;-79
2022/09/15 00:08:07;;;;;;;0.20;0.20;;;15.30;99.90;;;;;;4857948;29;20101;-79
2022/09/15 00:10:34;;;;;;;0.20;0.20;;;15.40;99.90;;;;;;4874473;29;20525;-80
2022/09/15 00:12:59;;;;;;;0.10;0.10;;;15.30;99.90;;;;;;4857624;29;20045;-80
2022/09/15 00:15:25;;;;;;;0.10;0.10;;;15.30;99.90;;;;;;4857987;29;20560;-79
2022/09/15 00:17:51;;;;;;;0.20;0.20;;;15.30;99.90;;;;;;4874041;29;20056;-79
2022/09/15 00:20:21;;;;;;;0.10;0.10;;;15.30;99.90;;;;;;4856909;29;20057;-79
2022/09/15 00:22:47;;;;;;;0.20;0.20;;;15.30;99.90;;;;;;4859351;29;20045;-79
2022/09/15 00:25:14;;;;;;;0.20;0.20;;;15.40;99.90;;;;;;4874193;29;20045;-79
2022/09/15 00:27:39;;;;;;;0.20;0.20;;;15.40;99.90;;;;;;4860135;29;20067;-79
2022/09/15 00:30:06;;;;;;;0.20;0.20;;;15.40;99.90;;;;;;4876054;29;20120;-79
2022/09/15 00:32:32;;;;;;;0.10;0.10;;;15.40;99.90;;;;;;4873820;29;20096;-79
2022/09/15 00:34:58;;;;;;;0.15;0.15;;;15.40;99.90;;;;;;4867461;29;20037;-80
2022/09/15 00:37:24;;;;;;;0.20;0.20;;;15.40;99.90;;;;;;4857125;29;20109;-79
2022/09/15 00:39:52;;;;;;;0.10;0.10;;;15.40;99.90;;;;;;4874616;29;20088;-79
2022/09/15 00:42:22;;;;;;;0.20;0.20;;;15.40;99.90;;;;;;4864404;29;20516;-79
2022/09/15 00:44:54;;;;;;;0.20;0.20;;;15.30;99.90;;;;;;4865872;29;20048;-78
2022/09/15 00:47:26;;;;;;;0.20;0.20;;;15.40;99.90;;;;;;4870648;29;20128;-79
2022/09/15 00:49:56;;;;;;;0.10;0.10;;;15.40;99.90;;;;;;4859452;29;20071;-78
2022/09/15 00:52:32;;;;;;;0.20;0.20;;;15.40;99.90;;;;;;4875172;29;20105;-78
2022/09/15 00:55:05;;;;;;;0.20;0.20;;;15.40;99.90;;;;;;4869809;29;20049;-78
2022/09/15 00:57:54;;;;;;;0.15;0.15;;;15.40;99.90;;;;;;4862653;29;20056;-79
2022/09/15 01:00:23;;;;;;;0.10;0.10;;;15.40;99.90;;;;;;4873033;29;20052;-78
2022/09/15 01:02:49;;;;;;;0.10;0.10;;;15.40;99.90;;;;;;4875241;29;20052;-78
2022/09/15 01:05:19;;;;;;;0.10;0.10;;;15.40;99.90;;;;;;4861706;29;20144;-78
2022/09/15 01:07:59;;;;;;;0.20;0.20;;;15.40;99.90;;;;;;4859053;29;20159;-79
2022/09/15 01:10:33;;;;;;;0.20;0.20;;;15.40;99.90;;;;;;4874301;29;20139;-78
2022/09/15 01:13:08;;;;;;;0.20;0.20;;;15.40;99.90;;;;;;4872250;29;20037;-78
2022/09/15 01:15:42;;;;;;;0.20;0.20;;;15.40;99.90;;;;;;4862411;29;20040;-79
2022/09/15 01:18:11;;;;;;;0.20;0.20;;;15.40;99.90;;;;;;4871173;29;20054;-79
2022/09/15 01:21:06;;;;;;;0.20;0.20;;;15.40;99.90;;;;;;4871393;29;20386;-79
2022/09/15 01:23:37;;;;;;;0.10;0.10;;;15.40;99.90;;;;;;4865533;29;20080;-78
2022/09/15 01:26:14;;;;;;;0.15;0.15;;;15.40;99.90;;;;;;4874984;29;20049;-79
2022/09/15 01:28:47;;;;;;;0.20;0.20;;;15.40;99.90;;;;;;4856626;29;20049;-79
2022/09/15 01:31:21;;;;;;;0.20;0.20;;;15.50;99.90;;;;;;4849724;29;20058;-79
2022/09/15 01:33:50;;;;;;;0.10;0.10;;;15.40;99.90;;;;;;4855526;29;20056;-79
2022/09/15 01:36:42;;;;;;;0.20;0.20;;;15.40;99.90;;;;;;4866674;29;20469;-79
2022/09/15 01:39:32;;;;;;;0.15;0.15;;;15.40;99.90;;;;;;4874786;29;20137;-79
2022/09/15 01:42:00;;;;;;;0.10;0.10;;;15.40;99.90;;;;;;4856851;29;20393;-78
2022/09/15 01:44:46;;;;;;;0.20;0.20;;;15.40;99.90;;;;;;4871943;29;20533;-79
2022/09/15 01:47:16;;;;;;;0.10;0.10;;;15.40;99.90;;;;;;4853652;29;20076;-79
2022/09/15 01:49:45;;;;;;;0.10;0.10;;;15.50;99.90;;;;;;4857594;29;20508;-79
2022/09/15 01:52:16;;;;;;;0.10;0.10;;;15.50;99.90;;;;;;4858628;29;20064;-79
2022/09/15 01:54:47;;;;;;;0.10;0.10;;;15.40;99.90;;;;;;4862715;29;20099;-78
2022/09/15 01:57:16;;;;;;;0.20;0.20;;;15.50;99.90;;;;;;4867344;29;20101;-79
2022/09/15 01:59:43;;;;;;;0.10;0.10;;;15.50;99.90;;;;;;4876637;29;20497;-79
2022/09/15 02:02:21;;;;;;;0.20;0.20;;;15.50;99.90;;;;;;4872920;29;20049;-80
2022/09/15 02:05:08;;;;;;;0.10;0.10;;;15.50;99.90;;;;;;4874814;29;20080;-77
2022/09/15 02:07:51;;;;;;;0.20;0.20;;;15.50;99.90;;;;;;4874045;29;20045;-77
2022/09/15 02:10:42;;;;;;;0.17;0.17;;;15.40;99.90;;;;;;4869558;29;20077;-77
2022/09/15 02:13:23;;;;;;;0.10;0.10;;;15.40;99.90;;;;;;4852341;29;20980;-77
2022/09/15 02:15:54;;;;;;;0.20;0.20;;;15.30;99.90;;;;;;4875696;29;20185;-77
2022/09/15 02:18:38;;;;;;;0.20;0.20;;;15.20;99.90;;;;;;4861930;29;20135;-77
2022/09/15 02:21:11;;;;;;;0.20;0.20;;;15.20;99.90;;;;;;4860907;29;20632;-77
2022/09/15 02:23:42;;;;;;;0.20;0.20;;;15.10;99.90;;;;;;4868861;29;20052;-77
2022/09/15 02:26:13;;;;;;;0.20;0.20;;;15.00;99.90;;;;;;4887157;29;20128;-77
2022/09/15 02:28:40;;;;;;;;;;;15.00;99.90;;;;;;4861442;29;20041;-78
2022/09/15 02:31:09;;;;;;;0.20;0.20;;;14.90;99.90;;;;;;4875977;29;19955;-78
2022/09/15 02:33:43;;;;;;;0.20;0.20;;;14.90;99.90;;;;;;4873453;29;20121;-77
2022/09/15 02:36:10;;;;;;;0.10;0.10;;;14.90;99.90;;;;;;4877725;29;20124;-78
2022/09/15 02:38:42;;;;;;;0.15;0.15;;;14.80;99.90;;;;;;4859522;29;20049;-77
2022/09/15 02:41:07;;;;;;;0.20;0.20;;;14.70;99.90;;;;;;4874498;29;20425;-77
2022/09/15 02:43:33;;;;;;;0.20;0.20;;;14.60;99.90;;;;;;4860529;29;20055;-77
2022/09/15 02:45:59;;;;;;;0.20;0.20;;;14.60;99.90;;;;;;4873519;29;20068;-78
2022/09/15 02:48:25;;;;;;;0.20;0.20;;;14.50;99.90;;;;;;4876165;29;20037;-77
2022/09/15 02:50:50;;;;;;;0.20;0.20;;;14.50;99.90;;;;;;4858529;29;20044;-78
2022/09/15 02:53:16;;;;;;;0.20;0.20;;;14.50;99.90;;;;;;4859090;29;20053;-78
2022/09/15 02:55:41;;;;;;;0.20;0.20;;;14.40;99.90;;;;;;4875384;29;20218;-78
2022/09/15 02:58:07;;;;;;;0.20;0.20;;;14.40;99.90;;;;;;4859236;29;20050;-78
2022/09/15 03:00:33;;;;;;;0.20;0.20;;;14.40;99.90;;;;;;4876496;29;20033;-77
2022/09/15 03:02:58;;;;;;;0.20;0.20;;;14.40;99.90;;;;;;4876588;29;20060;-77
2022/09/15 03:05:29;;;;;;;0.20;0.20;;;14.40;99.90;;;;;;4858513;29;20044;-78
2022/09/15 03:07:55;;;;;;;0.20;0.20;;;14.40;99.90;;;;;;4860186;29;20060;-77
2022/09/15 03:10:22;;;;;;;0.20;0.20;;;14.30;99.90;;;;;;4858860;29;20515;-78
2022/09/15 03:12:51;;;;;;;0.10;0.10;;;14.30;99.90;;;;;;4858896;29;20056;-77
2022/09/15 03:15:21;;;;;;;0.20;0.20;;;14.40;99.90;;;;;;4873957;29;20154;-77
2022/09/15 03:17:47;;;;;;;0.20;0.20;;;14.40;99.90;;;;;;4877746;29;20049;-78
2022/09/15 03:20:19;;;;;;;0.17;0.17;;;14.40;99.90;;;;;;4875988;29;20067;-76
2022/09/15 03:22:45;;;;;;;0.20;0.20;;;14.40;99.90;;;;;;4875551;29;20045;-78
2022/09/15 03:25:11;;;;;;;0.17;0.17;;;14.40;99.90;;;;;;4874868;29;20132;-78
2022/09/15 03:27:36;;;;;;;0.20;0.20;;;14.40;99.90;;;;;;4859491;29;20487;-78
2022/09/15 03:30:04;;;;;;;0.20;0.20;;;14.40;99.90;;;;;;4874918;29;20037;-78
2022/09/15 03:32:30;;;;;;;0.13;0.13;;;14.30;99.90;;;;;;4859329;29;20063;-78
2022/09/15 03:34:56;;;;;;;0.20;0.20;;;14.40;99.90;;;;;;4858396;29;20037;-79
2022/09/15 03:37:22;;;;;;;0.10;0.10;;;14.30;99.90;;;;;;4875272;29;20045;-78
2022/09/15 03:39:47;;;;;;;0.10;0.10;;;14.30;99.90;;;;;;4860167;29;20072;-79
2022/09/15 03:42:13;;;;;;;0.10;0.10;;;14.40;99.90;;;;;;4873851;29;20049;-79
2022/09/15 03:44:39;;;;;;;0.20;0.20;;;14.30;99.90;;;;;;4859607;29;20053;-78
2022/09/15 03:47:05;;;;;;;0.10;0.10;;;14.40;99.90;;;;;;4857531;29;20124;-79
2022/09/15 03:49:30;;;;;;;0.20;0.20;;;14.40;99.90;;;;;;4854973;29;20037;-78
2022/09/15 03:51:57;;;;;;;0.13;0.13;;;14.40;99.90;;;;;;4854601;29;20060;-79
2022/09/15 03:54:25;;;;;;;0.20;0.20;;;14.40;99.90;;;;;;4859756;29;20136;-79
2022/09/15 03:56:50;;;;;;;0.20;0.20;;;14.40;99.90;;;;;;4857261;29;20048;-79
2022/09/15 03:59:20;;;;;;;0.20;0.20;;;14.40;99.90;;;;;;4876035;29;20045;-78
2022/09/15 04:01:46;;;;;;;0.20;0.20;;;14.30;99.90;;;;;;4875463;29;20045;-78
2022/09/15 04:04:13;;;;;;;0.20;0.20;;;14.40;99.90;;;;;;4868939;29;20064;-79
2022/09/15 04:06:40;;;;;;;0.20;0.20;;;14.30;99.90;;;;;;4875001;29;20061;-78
2022/09/15 04:09:06;;;;;;;0.20;0.20;;;14.30;99.90;;;;;;4857777;29;20443;-78
2022/09/15 04:11:32;;;;;;;0.20;0.20;;;14.30;99.90;;;;;;4858000;29;20048;-78
2022/09/15 04:13:58;;;;;;;0.13;0.13;;;14.30;99.90;;;;;;4859937;29;20052;-78
2022/09/15 04:16:26;;;;;;;0.15;0.15;;;14.30;99.90;;;;;;4857245;29;20541;-79
2022/09/15 04:18:54;;;;;;;0.20;0.20;;;14.30;99.90;;;;;;4858526;29;20045;-78
2022/09/15 04:21:22;;;;;;;0.15;0.15;;;14.30;99.90;;;;;;4849252;29;20076;-78
2022/09/15 04:23:48;;;;;;;0.10;0.10;;;14.30;99.90;;;;;;4858321;29;20173;-79
2022/09/15 04:26:23;;;;;;;0.20;0.20;;;14.40;99.90;;;;;;4874893;29;20053;-79
2022/09/15 04:28:49;;;;;;;0.20;0.20;;;14.30;99.90;;;;;;4855001;29;20041;-78
2022/09/15 04:31:16;;;;;;;0.20;0.20;;;14.40;99.90;;;;;;4856500;29;20131;-79
2022/09/15 04:33:43;;;;;;;0.20;0.20;;;14.30;99.90;;;;;;4855768;29;20049;-79
2022/09/15 04:36:15;;;;;;;0.10;0.10;;;14.30;99.90;;;;;;4873185;29;20056;-78
2022/09/15 04:38:41;;;;;;;0.17;0.17;;;14.30;99.90;;;;;;4874530;29;20399;-79
2022/09/15 04:41:07;;;;;;;0.13;0.13;;;14.30;99.90;;;;;;4870826;29;20443;-79
2022/09/15 04:43:33;;;;;;;0.10;0.10;;;14.30;99.90;;;;;;4858061;29;20080;-79
2022/09/15 04:45:59;;;;;;;0.10;0.10;;;14.40;99.90;;;;;;4857669;29;20049;-79
2022/09/15 04:48:25;;;;;;;0.20;0.20;;;14.20;99.90;;;;;;4874245;29;20604;-78
2022/09/15 04:50:51;;;;;;;0.20;0.20;;;14.20;99.90;;;;;;4856542;29;20557;-79
2022/09/15 04:53:17;;;;;;;0.17;0.17;;;14.20;99.90;;;;;;4848474;29;20048;-78
2022/09/15 04:55:43;;;;;;;0.20;0.20;;;14.30;99.90;;;;;;4856686;29;20517;-78
2022/09/15 04:58:09;;;;;;;0.20;0.20;;;14.20;99.90;;;;;;4857815;29;20049;-78
2022/09/15 05:00:41;;;;;;;0.20;0.20;;;14.20;99.90;;;;;;4871280;29;20055;-78
2022/09/15 05:03:11;;;;;;;0.20;0.20;;;14.10;99.90;;;;;;4855630;29;20095;-78
2022/09/15 05:05:38;;;;;;;0.20;0.20;;;14.10;99.90;;;;;;4864098;29;20073;-78
2022/09/15 05:08:03;;;;;;;0.20;0.20;;;14.10;99.90;;;;;;4875121;29;20719;-76
2022/09/15 05:10:29;;;;;;;0.10;0.10;;;14.10;99.90;;;;;;4874398;29;20118;-77
2022/09/15 05:12:55;;;;;;;0.10;0.10;;;14.10;99.90;;;;;;4873104;29;20516;-77
2022/09/15 05:15:24;;;;;;;0.20;0.20;;;14.10;99.90;;;;;;4873574;29;20041;-77
2022/09/15 05:17:50;;;;;;;0.10;0.10;;;14.00;99.90;;;;;;4867043;29;20410;-77
2022/09/15 05:20:16;;;;;;;0.17;0.17;;;14.00;99.90;;;;;;4871456;29;20085;-77
2022/09/15 05:22:43;;;;;;;0.20;0.20;;;14.00;99.90;;;;;;4873903;29;20796;-79
2022/09/15 05:25:09;;;;;;;0.13;0.13;;;14.00;99.90;;;;;;4867140;29;20057;-77
2022/09/15 05:27:35;;;;;;;0.10;0.10;;;13.90;99.90;;;;;;4872409;29;20465;-76
2022/09/15 05:30:00;;;;;;;0.20;0.20;;;13.90;99.90;;;;;;4872930;29;20069;-76
2022/09/15 05:32:26;;;;;;;0.20;0.20;;;13.90;99.90;;;;;;4874414;29;20056;-76
2022/09/15 05:34:52;;;;;;;0.20;0.20;;;13.90;99.90;;;;;;4873964;29;20053;-76
2022/09/15 05:37:18;;;;;;;0.13;0.13;;;13.90;99.90;;;;;;4875131;29;20037;-77
2022/09/15 05:39:43;;;;;;;0.20;0.20;;;14.00;99.90;;;;;;4857860;29;20121;-77
2022/09/15 05:42:09;;;;;;;0.10;0.10;;;14.00;99.90;;;;;;4867635;29;20120;-76
2022/09/15 05:44:34;;;;;;;0.17;0.17;;;13.90;99.90;;;;;;4884479;29;20045;-76
2022/09/15 05:47:00;;;;;;;0.10;0.10;;;13.90;99.90;;;;;;4876799;29;20048;-77
2022/09/15 05:49:28;;;;;;;0.20;0.20;;;14.00;99.90;;;;;;4861870;29;20197;-77
2022/09/15 05:51:54;;;;;;;0.13;0.13;;;14.00;99.90;;;;;;4875073;29;20045;-76
2022/09/15 05:54:19;;;;;;;0.10;0.10;;;14.00;99.90;;;;;;4876782;29;20045;-77
2022/09/15 05:56:45;;;;;;;0.10;0.10;;;14.00;99.90;;;;;;4860757;29;20041;-77
2022/09/15 05:59:11;;;;;;;0.20;0.20;;;14.00;99.90;;;;;;4876010;29;20049;-77
2022/09/15 06:01:36;;;;;;;0.20;0.20;;;14.00;99.90;;;;;;4874318;29;20052;-77
2022/09/15 06:04:02;;;;;;;0.20;0.20;;;14.10;99.90;;;;;;4859184;29;20056;-77
2022/09/15 06:06:30;;;;;;;0.20;0.20;;;14.10;99.90;;;;;;4877061;29;20044;-77
2022/09/15 06:08:57;;;;;;;0.20;0.20;;;14.10;99.90;;;;;;4875382;29;20494;-77
2022/09/15 06:11:25;;;;;;;0.20;0.20;;;14.10;99.90;;;;;;4875780;29;20052;-77
2022/09/15 06:13:51;;;;;;;0.20;0.20;;;14.30;99.90;;;;;;4875758;29;20116;-76
2022/09/15 06:16:20;;;;;;;0.10;0.10;;;14.20;99.90;;;;;;4873455;29;20097;-77
2022/09/15 06:18:47;;;;;;;0.10;0.10;;;14.20;99.90;;;;;;4873383;29;20053;-77
2022/09/15 06:21:20;;;;;;;0.20;0.20;;;14.30;99.90;;;;;;4860243;29;20049;-77
2022/09/15 06:23:46;;;;;;;0.20;0.20;;;14.30;99.90;;;;;;4859168;29;20453;-77
2022/09/15 06:26:17;;;;;;;0.20;0.20;;;14.30;99.90;;;;;;4875977;29;20064;-76
2022/09/15 06:29:02;;;;;;;;;;;14.40;99.90;;;;;;4870898;29;20517;-77
2022/09/15 06:31:33;;;;;;;0.13;0.13;;;14.40;99.90;;;;;;4855245;29;19927;-76
2022/09/15 06:33:59;;;;;;;0.20;0.20;;;14.50;99.90;;;;;;4875690;29;20445;-77
2022/09/15 06:36:31;;;;;;;0.10;0.10;;;14.50;99.90;;;;;;4859471;29;20052;-77
2022/09/15 06:38:57;;;;;;;0.15;0.15;;;14.60;99.90;;;;;;4876861;29;20053;-77
2022/09/15 06:41:23;;;;;;;0.10;0.10;;;14.60;99.90;;;;;;4876966;29;20101;-78
2022/09/15 06:43:49;;;;;;;0.20;0.20;;;14.70;99.90;;;;;;4873607;29;20045;-77
2022/09/15 06:46:18;;;;;;;0.17;0.17;;;14.70;99.90;;;;;;4873886;29;20057;-77
2022/09/15 06:48:44;;;;;;;0.15;0.15;;;14.70;99.90;;;;;;4860748;29;20076;-78
2022/09/15 06:51:15;;;;;;;0.20;0.20;;;14.70;99.90;;;;;;4853728;29;20046;-81
2022/09/15 06:53:41;;;;;;;0.20;0.20;;;14.80;99.90;;;;;;4874314;29;20390;-81
2022/09/15 06:56:19;;;;;;;0.10;0.10;;;14.60;99.90;;;;;;4863542;29;20042;-82
2022/09/15 06:58:48;;;;;;;0.20;0.20;;;14.80;99.90;;;;;;4859214;29;20053;-81
2022/09/15 07:01:22;;;;;;;0.10;0.10;;;14.80;99.90;;;;;;4857446;29;20055;-81
2022/09/15 07:03:48;;;;;;;0.20;0.20;;;14.80;99.90;;;;;;4875277;29;20043;-80
2022/09/15 07:06:14;;;;;;;0.10;0.10;;;14.90;99.90;;;;;;4855294;29;20041;-78
2022/09/15 07:08:40;;;;;;;0.20;0.20;;;14.90;99.90;;;;;;4876035;29;20100;-77
2022/09/15 07:11:07;;;;;;;0.20;0.20;;;14.80;99.90;;;;;;4859237;29;20065;-75
2022/09/15 07:13:33;;;;;;;0.10;0.10;;;14.90;99.90;;;;;;4876186;29;20055;-75
2022/09/15 07:16:02;;;;;;;0.20;0.20;;;15.00;99.90;;;;;;4856996;29;20053;-75
2022/09/15 07:18:27;;;;;;;0.10;0.10;;;15.00;99.90;;;;;;4858295;29;20068;-76
2022/09/15 07:21:05;;;;;;;0.10;0.10;;;15.20;99.90;;;;;;4855082;29;20049;-75
2022/09/15 07:23:32;;;;;;;0.20;0.20;;;15.20;99.90;;;;;;4886782;29;20052;-75
2022/09/15 07:26:13;;;;;;;0.10;0.10;;;15.20;99.90;;;;;;4876420;29;20120;-75
2022/09/15 07:28:41;;;;;;;;;;;15.30;99.90;;;;;;4858293;29;20132;-75
2022/09/15 07:31:07;;;;;;;0.10;0.10;;;15.30;99.90;;;;;;4874309;29;19927;-75
2022/09/15 07:33:34;;;;;;;0.10;0.10;;;15.30;99.90;;;;;;4853761;29;20509;-76
2022/09/15 07:36:05;;;;;;;0.20;0.20;;;15.40;99.90;;;;;;4859676;29;20053;-76
2022/09/15 07:38:31;;;;;;;0.10;0.10;;;15.40;99.90;;;;;;4855537;29;20045;-75
2022/09/15 07:41:04;;;;;;;0.20;0.20;;;15.40;99.90;;;;;;4863774;29;20438;-76
2022/09/15 07:43:30;;;;;;;0.20;0.20;;;15.50;99.90;;;;;;4860384;29;20182;-75
2022/09/15 07:45:57;;;;;;;0.10;0.10;;;15.50;99.90;;;;;;4858778;29;20124;-75
2022/09/15 07:48:22;;;;;;;0.10;0.10;;;15.50;99.90;;;;;;4875614;29;20049;-76
2022/09/15 07:50:48;;;;;;;0.10;0.10;;;15.50;99.90;;;;;;4876693;29;20067;-76
2022/09/15 07:53:14;;;;;;;0.20;0.20;;;15.50;99.90;;;;;;4859996;29;20053;-75
2022/09/15 07:55:39;;;;;;;0.10;0.10;;;15.60;99.90;;;;;;4859918;29;20545;-76
2022/09/15 07:58:05;;;;;;;0.20;0.20;;;15.50;99.90;;;;;;4859624;29;20056;-75
2022/09/15 08:00:31;;;;;;;0.17;0.17;;;15.60;99.90;;;;;;4874803;29;20049;-76
2022/09/15 08:02:56;;;;;;;0.20;0.20;;;15.50;99.90;;;;;;4860361;29;20386;-76
2022/09/15 08:05:28;;;;;;;0.20;0.20;;;15.60;99.90;;;;;;4878388;29;20116;-76
2022/09/15 08:07:55;;;;;;;0.20;0.20;;;15.70;99.90;;;;;;4847781;29;20053;-76
2022/09/15 08:10:22;;;;;;;0.10;0.10;;;15.80;99.90;;;;;;4875679;29;20524;-76
2022/09/15 08:12:48;;;;;;;0.17;0.17;;;15.80;99.90;;;;;;4871197;29;20048;-76
2022/09/15 08:15:13;;;;;;;0.10;0.10;;;15.80;99.90;;;;;;4846053;29;20049;-76
2022/09/15 08:17:39;;;;;;;0.20;0.20;;;15.90;99.90;;;;;;4875266;29;20512;-76
2022/09/15 08:20:06;;;;;;;0.20;0.20;;;15.90;99.90;;;;;;4866555;29;20056;-76
2022/09/15 08:22:31;;;;;;;0.20;0.20;;;16.00;99.90;;;;;;4874755;29;20044;-76
2022/09/15 08:24:57;;;;;;;0.10;0.10;;;16.10;99.90;;;;;;4858169;29;20438;-76
2022/09/15 08:27:23;;;;;;;0.20;0.20;;;16.20;99.90;;;;;;4864772;29;20053;-76
2022/09/15 08:29:51;;;;;;;0.10;0.10;;;16.20;99.90;;;;;;4872271;29;20131;-76
2022/09/15 08:32:16;;;;;;;0.20;0.20;;;16.40;99.90;;;;;;4856803;29;20176;-76
2022/09/15 08:34:42;;;;;;;0.20;0.20;;;16.30;99.90;;;;;;4857830;29;20048;-77
2022/09/15 08:37:07;;;;;;;0.10;0.10;;;16.40;99.90;;;;;;4853648;29;20632;-79
2022/09/15 08:39:33;;;;;;;0.20;0.20;;;16.50;99.90;;;;;;4867039;29;20044;-78
2022/09/15 08:42:01;;;;;;;0.20;0.20;;;16.50;99.90;;;;;;4861066;29;20898;-79
2022/09/15 08:44:32;;;;;;;0.20;0.20;;;16.60;99.90;;;;;;4869034;29;20139;-78
2022/09/15 08:47:01;;;;;;;;;;;16.70;99.90;;;;;;4851956;29;20045;-76
2022/09/15 08:49:54;;;;;;;0.10;0.10;;;16.80;99.90;;;;;;4875099;29;19923;-78
2022/09/15 08:52:29;;;;;;;0.20;0.20;;;16.80;99.90;;;;;;4859145;29;20056;-77
2022/09/15 08:54:57;;;;;;;0.20;0.20;;;16.80;99.90;;;;;;4874241;29;20498;-76
2022/09/15 08:57:24;;;;;;;0.20;0.20;;;16.80;99.90;;;;;;4852128;29;20664;-76
2022/09/15 08:59:53;;;;;;;0.10;0.10;;;16.90;99.90;;;;;;4860627;29;20049;-75
2022/09/15 09:02:40;;;;;;;0.20;0.20;;;16.90;99.90;;;;;;4888717;29;20045;-76
2022/09/15 09:05:40;;;;;;;0.20;0.20;;;16.90;99.90;;;;;;4868879;29;20059;-78
2022/09/15 09:08:27;;;;;;;0.10;0.10;;;16.90;99.90;;;;;;4881571;29;20044;-77
2022/09/15 09:11:00;;;;;;;0.17;0.17;;;16.80;99.90;;;;;;4888772;29;20489;-77
2022/09/15 09:13:45;;;;;;;0.20;0.20;;;16.80;99.90;;;;;;4868255;29;20045;-77
2022/09/15 09:16:30;;;;;;;0.10;0.10;;;16.60;99.90;;;;;;4880325;29;20049;-74
2022/09/15 09:19:33;;;;;;;0.20;0.20;;;16.50;99.90;;;;;;4877504;29;20140;-75
2022/09/15 09:22:11;;;;;;;0.10;0.10;;;16.50;99.90;;;;;;4861156;29;20049;-76
2022/09/15 09:24:44;;;;;;;0.10;0.10;;;16.50;99.90;;;;;;4871799;29;20052;-75
2022/09/15 09:27:27;;;;;;;0.20;0.20;;;16.40;99.90;;;;;;4863556;29;20056;-76
2022/09/15 09:30:03;;;;;;;0.10;0.10;;;16.40;99.90;;;;;;4879452;29;20445;-75
2022/09/15 09:32:45;;;;;;;0.20;0.20;;;16.40;99.90;;;;;;4875880;29;20109;-75
2022/09/15 09:35:33;;;;;;;0.20;0.20;;;16.30;99.90;;;;;;4876293;29;20040;-75
2022/09/15 09:38:01;;;;;;;0.10;0.10;;;16.30;99.90;;;;;;4876799;29;20137;-75
2022/09/15 09:40:29;;;;;;;0.20;0.20;;;16.20;99.90;;;;;;4862061;29;20424;-75
2022/09/15 09:42:55;;;;;;;0.20;0.20;;;16.20;99.90;;;;;;4878406;29;20447;-75
2022/09/15 09:45:22;;;;;;;0.20;0.20;;;16.10;99.90;;;;;;4860803;29;20052;-75
2022/09/15 09:47:48;;;;;;;0.20;0.20;;;16.00;99.90;;;;;;4858852;29;20574;-75
2022/09/15 09:50:37;;;;;;;0.13;0.13;;;16.10;99.90;;;;;;4877073;29;20128;-75
2022/09/15 09:53:24;;;;;;;0.13;0.13;;;16.10;99.90;;;;;;4868184;29;20056;-75
2022/09/15 09:55:52;;;;;;;0.10;0.10;;;16.10;99.90;;;;;;4874164;29;20052;-76
2022/09/15 09:58:24;;;;;;;0.20;0.20;;;16.20;99.90;;;;;;4859569;29;20057;-75
2022/09/15 10:00:51;;;;;;;0.20;0.20;;;16.10;99.90;;;;;;4876510;29;20045;-75
2022/09/15 10:03:23;;;;;;;0.20;0.20;;;16.10;99.90;;;;;;4861308;29;20052;-74
2022/09/15 10:06:10;;;;;;;0.20;0.20;;;16.10;99.90;;;;;;4859695;29;20057;-75
2022/09/15 10:08:37;;;;;;;0.20;0.20;;;16.20;99.90;;;;;;4861663;29;20064;-74
2022/09/15 10:11:09;;;;;;;0.20;0.20;;;16.10;99.90;;;;;;4878438;29;20509;-75
2022/09/15 10:13:48;;;;;;;0.20;0.20;;;16.20;99.90;;;;;;4877763;29;20127;-75
2022/09/15 10:16:18;;;;;;;0.20;0.20;;;16.20;99.90;;;;;;4855921;29;20060;-76
2022/09/15 10:18:44;;;;;;;0.20;0.20;;;16.30;99.90;;;;;;4878604;29;20500;-76
2022/09/15 10:21:13;;;;;;;0.20;0.20;;;16.30;99.90;;;;;;4857011;29;20576;-74
2022/09/15 10:23:39;;;;;;;0.20;0.20;;;16.30;99.90;;;;;;4875254;29;20049;-75
2022/09/15 10:26:17;;;;;;;0.20;0.20;;;16.40;99.90;;;;;;4859160;29;20056;-75
2022/09/15 10:28:43;;;;;;;0.20;0.20;;;16.40;99.90;;;;;;4878809;29;20052;-76
2022/09/15 10:31:14;;;;;;;0.20;0.20;;;16.30;99.90;;;;;;4857747;29;20049;-75
2022/09/15 10:33:44;;;;;;;0.20;0.20;;;16.40;99.90;;;;;;4859823;29;20056;-75
2022/09/15 10:36:13;;;;;;;0.10;0.10;;;16.40;99.90;;;;;;4860294;29;20124;-75
2022/09/15 10:39:07;;;;;;;0.17;0.17;;;16.30;99.90;;;;;;4861886;29;20049;-75
2022/09/15 10:41:45;;;;;;;0.20;0.20;;;16.20;99.90;;;;;;4857089;29;20128;-75
2022/09/15 10:44:25;;;;;;;0.20;0.20;;;16.20;99.90;;;;;;4857492;29;20053;-75
2022/09/15 10:47:23;;;;;;;0.20;0.20;;;16.10;99.90;;;;;;4866517;29;21515;-75
2022/09/15 10:50:04;;;;;;;0.20;0.20;;;16.00;99.90;;;;;;4867798;29;20400;-73
2022/09/15 10:52:54;;;;;;;0.15;0.15;;;16.00;99.90;;;;;;4857468;29;20045;-75
2022/09/15 10:55:36;;;;;;;0.20;0.20;;;16.30;99.90;;;;;;4855810;29;20055;-75
2022/09/15 10:58:27;;;;;;;0.20;0.20;;;16.00;99.90;;;;;;4853155;29;20123;-74
2022/09/15 11:01:30;;;;;;;0.17;0.17;;;16.00;99.90;;;;;;4863259;29;20053;-75
2022/09/15 11:04:17;;;;;;;0.10;0.10;;;16.00;99.90;;;;;;4865636;29;20057;-74
2022/09/15 11:07:01;;;;;;;0.20;0.20;;;16.00;99.90;;;;;;4859376;29;20163;-74
2022/09/15 11:09:34;;;;;;;0.10;0.10;;;16.10;99.90;;;;;;4859415;29;20104;-75
2022/09/15 11:12:21;;;;;;;0.10;0.10;;;16.20;99.90;;;;;;4876778;29;20057;-75
2022/09/15 11:15:30;;;;;;;0.20;0.20;;;16.30;99.90;;;;;;4869867;29;20077;-75
2022/09/15 11:18:10;;;;;;;0.15;0.15;;;16.30;99.90;;;;;;4859276;29;20061;-74
2022/09/15 11:20:52;;;;;;;0.10;0.10;;;16.40;99.90;;;;;;4854326;29;20041;-75
2022/09/15 11:23:33;;;;;;;0.20;0.20;;;16.50;99.90;;;;;;4873462;29;20084;-75
2022/09/15 11:26:18;;;;;;;0.20;0.20;;;16.60;99.90;;;;;;4873833;29;20056;-75
2022/09/15 11:29:02;;;;;;;0.10;0.10;;;16.70;99.90;;;;;;4851288;29;20049;-77
2022/09/15 11:31:39;;;;;;;0.20;0.20;;;16.80;99.90;;;;;;4860541;29;20053;-76
2022/09/15 11:34:24;;;;;;;0.20;0.20;;;16.90;99.90;;;;;;4872264;29;20545;-75
2022/09/15 11:36:59;;;;;;;0.20;0.20;;;17.10;99.90;;;;;;4858970;29;20047;-75
2022/09/15 11:39:34;;;;;;;0.10;0.10;;;17.20;99.90;;;;;;4856662;29;20064;-75
2022/09/15 11:42:14;;;;;;;0.20;0.20;;;17.40;99.90;;;;;;4876233;29;20517;-76
2022/09/15 11:44:43;;;;;;;0.13;0.13;;;17.50;99.90;;;;;;4870802;29;20056;-75
2022/09/15 11:47:29;;;;;;;0.20;0.20;;;17.60;99.90;;;;;;4891748;29;20045;-76
2022/09/15 11:50:05;;;;;;;0.20;0.20;;;17.70;99.90;;;;;;4874763;29;20053;-76
2022/09/15 11:52:49;;;;;;;0.20;0.20;;;17.90;99.90;;;;;;4875413;29;20049;-76
2022/09/15 11:55:34;;;;;;;0.20;0.20;;;17.80;99.90;;;;;;4859410;29;20052;-75
2022/09/15 11:58:23;;;;;;;0.10;0.10;;;17.80;99.90;;;;;;4874485;29;20413;-76
2022/09/15 12:01:06;;;;;;;0.20;0.20;;;17.90;99.90;;;;;;4858589;29;20502;-75
2022/09/15 12:03:55;;;;;;;0.17;0.17;;;18.10;99.90;;;;;;4874463;29;20044;-76
2022/09/15 12:06:40;;;;;;;0.10;0.10;;;18.00;99.90;;;;;;4895280;29;20083;-76
2022/09/15 12:09:11;;;;;;;0.20;0.20;;;18.00;99.90;;;;;;4875511;29;20120;-75
2022/09/15 12:11:44;;;;;;;0.20;0.20;;;18.00;99.90;;;;;;4859464;29;20576;-76
2022/09/15 12:14:39;;;;;;;0.20;0.20;;;18.10;99.90;;;;;;4873742;29;20080;-76
2022/09/15 12:17:08;;;;;;;0.20;0.20;;;18.30;99.90;;;;;;4874250;29;20401;-76
2022/09/15 12:20:06;;;;;;;0.20;0.20;;;18.50;99.90;;;;;;4870268;29;20048;-76
2022/09/15 12:22:44;;;;;;;0.20;0.20;;;18.70;99.90;;;;;;4871825;29;20135;-76
2022/09/15 12:25:16;;;;;;;0.10;0.10;;;18.60;99.90;;;;;;4858079;29;20512;-76
2022/09/15 12:28:23;;;;;;;0.20;0.20;;;18.60;99.90;;;;;;4872764;29;20041;-76
2022/09/15 12:31:11;;;;;;;0.20;0.20;;;18.60;99.90;;;;;;4875321;29;20047;-76
2022/09/15 12:33:55;;;;;;;0.20;0.20;;;18.60;99.90;;;;;;4859386;29;20128;-75
2022/09/15 12:36:36;;;;;;;0.20;0.20;;;18.60;99.90;;;;;;4856515;29;20048;-76
2022/09/15 12:39:18;;;;;;;0.20;0.20;;;18.60;99.90;;;;;;4876025;29;20588;-75
2022/09/15 12:41:49;;;;;;;0.13;0.13;;;18.60;99.90;;;;;;4860250;29;20057;-75
2022/09/15 12:44:36;;;;;;;0.20;0.20;;;18.70;99.90;;;;;;4875865;29;20049;-75
2022/09/15 12:47:06;;;;;;;0.10;0.10;;;18.80;99.90;;;;;;4858387;29;20417;-76
2022/09/15 12:49:42;;;;;;;0.20;0.20;;;19.00;99.90;;;;;;4861025;29;20085;-76
2022/09/15 12:52:09;;;;;;;0.20;0.20;;;19.20;99.90;;;;;;4846504;29;20119;-75
2022/09/15 12:54:38;;;;;;;0.20;0.20;;;19.40;99.90;;;;;;4875275;29;20389;-75
2022/09/15 12:57:05;;;;;;;0.20;0.20;;;19.60;99.90;;;;;;4875098;29;20053;-76
2022/09/15 12:59:31;;;;;;;0.20;0.20;;;19.70;99.90;;;;;;4875831;29;20688;-76
2022/09/15 13:01:57;;;;;;;0.20;0.20;;;19.60;99.90;;;;;;4855625;29;20124;-75
2022/09/15 13:04:42;;;;;;;0.20;0.20;;;19.40;99.90;;;;;;4843092;29;20053;-76
2022/09/15 13:07:13;;;;;;;0.17;0.17;;;19.20;99.90;;;;;;4867482;29;20439;-76
2022/09/15 13:09:54;;;;;;;0.20;0.20;;;19.00;99.90;;;;;;4871931;29;20041;-77
2022/09/15 13:12:23;;;;;;;0.15;0.15;;;18.70;99.90;;;;;;4858717;29;20477;-77